createdAt,value
2023-05-31T00:01:22.056Z,13.10
2023-05-31T00:03:48.934Z,13.10
2023-05-31T00:06:15.906Z,13.10
2023-05-31T00:08:42.791Z,13.10
2023-05-31T00:11:09.393Z,13.00
2023-05-31T00:13:36.105Z,14.40
2023-05-31T00:16:02.757Z,12.90
2023-05-31T00:18:29.470Z,12.90
2023-05-31T00:20:56.195Z,12.90
2023-05-31T00:23:22.883Z,12.80
2023-05-31T00:25:49.552Z,12.80
2023-05-31T00:28:16.500Z,12.70
2023-05-31T00:30:43.255Z,12.60
2023-05-31T00:33:09.961Z,12.50
2023-05-31T00:35:36.650Z,12.40
2023-05-31T00:38:06.602Z,12.30
2023-05-31T00:40:34.165Z,12.30
2023-05-31T00:43:01.183Z,12.30
2023-05-31T00:45:29.774Z,12.40
2023-05-31T00:47:57.719Z,12.30
2023-05-31T00:50:24.698Z,12.20
2023-05-31T00:52:54.132Z,12.20
2023-05-31T00:55:21.449Z,12.20
2023-05-31T00:57:48.433Z,12.10
2023-05-31T01:00:16.426Z,12.10
2023-05-31T01:02:44.373Z,12.10
2023-05-31T01:05:11.280Z,12.00
2023-05-31T01:07:38.497Z,12.10
2023-05-31T01:10:07.492Z,12.10
2023-05-31T01:13:11.749Z,12.10
2023-05-31T01:15:47.580Z,12.10
2023-05-31T01:18:33.735Z,12.10
2023-05-31T01:21:04.367Z,12.10
2023-05-31T01:24:07.051Z,12.00
2023-05-31T01:26:44.225Z,12.00
2023-05-31T01:29:15.065Z,11.90
2023-05-31T01:31:43.272Z,11.90
2023-05-31T01:34:10.468Z,11.90
2023-05-31T01:36:37.362Z,11.70
2023-05-31T01:39:05.027Z,11.70
2023-05-31T01:41:41.348Z,11.60
2023-05-31T01:44:09.068Z,11.60
2023-05-31T01:46:35.838Z,11.60
2023-05-31T01:49:03.260Z,11.60
2023-05-31T01:51:33.595Z,11.60
2023-05-31T01:54:00.659Z,11.50
2023-05-31T01:56:29.662Z,11.40
2023-05-31T01:58:57.419Z,11.30
2023-05-31T02:01:24.309Z,11.30
2023-05-31T02:03:52.430Z,11.20
2023-05-31T02:06:19.662Z,11.20
2023-05-31T02:08:46.719Z,11.30
2023-05-31T02:11:13.391Z,11.30
2023-05-31T02:13:40.004Z,11.30
2023-05-31T02:16:07.019Z,11.30
2023-05-31T02:18:33.599Z,11.30
2023-05-31T02:21:00.518Z,11.30
2023-05-31T02:23:27.483Z,11.30
2023-05-31T02:25:56.273Z,11.20
2023-05-31T02:28:23.009Z,11.20
2023-05-31T02:30:57.465Z,11.10
2023-05-31T02:33:24.649Z,10.90
2023-05-31T02:35:51.573Z,11.00
2023-05-31T02:38:19.148Z,11.00
2023-05-31T02:40:45.765Z,11.00
2023-05-31T02:43:12.435Z,11.00
2023-05-31T02:45:39.093Z,11.00
2023-05-31T02:48:06.530Z,11.00
2023-05-31T02:50:33.554Z,10.80
2023-05-31T02:53:05.361Z,10.80
2023-05-31T02:55:33.330Z,10.80
2023-05-31T02:58:00.282Z,10.80
2023-05-31T03:00:27.068Z,10.80
2023-05-31T03:02:54.058Z,10.80
2023-05-31T03:05:21.787Z,10.80
2023-05-31T03:07:49.181Z,10.70
2023-05-31T03:10:16.383Z,10.70
2023-05-31T03:12:42.985Z,10.50
2023-05-31T03:15:10.162Z,10.50
2023-05-31T03:17:38.452Z,10.40
2023-05-31T03:20:09.679Z,10.30
2023-05-31T03:22:37.340Z,10.40
2023-05-31T03:25:05.032Z,10.40
2023-05-31T03:27:32.450Z,10.40
2023-05-31T03:29:59.763Z,10.50
2023-05-31T03:32:26.455Z,10.50
2023-05-31T03:34:53.125Z,10.50
2023-05-31T03:37:19.845Z,10.50
2023-05-31T03:39:46.536Z,10.50
2023-05-31T03:42:13.172Z,10.40
2023-05-31T03:44:40.230Z,10.40
2023-05-31T03:47:07.386Z,10.30
2023-05-31T03:49:34.035Z,10.40
2023-05-31T03:52:00.771Z,10.40
2023-05-31T03:54:27.383Z,10.40
2023-05-31T03:56:54.047Z,10.50
2023-05-31T03:59:20.942Z,10.50
2023-05-31T04:01:47.609Z,10.40
2023-05-31T04:04:14.380Z,10.40
2023-05-31T04:06:41.217Z,10.40
2023-05-31T04:09:07.865Z,10.40
2023-05-31T04:11:34.560Z,10.50
2023-05-31T04:14:01.165Z,10.60
2023-05-31T04:16:27.839Z,10.60
2023-05-31T04:18:54.800Z,10.70
2023-05-31T04:21:21.618Z,10.70
2023-05-31T04:23:48.224Z,10.60
2023-05-31T04:26:17.700Z,10.80
2023-05-31T04:28:45.070Z,10.90
2023-05-31T04:31:13.309Z,10.90
2023-05-31T04:33:43.227Z,11.10
2023-05-31T04:36:09.934Z,11.20
2023-05-31T04:38:36.878Z,11.10
2023-05-31T04:41:04.289Z,11.20
2023-05-31T04:43:31.015Z,11.30
2023-05-31T04:46:01.434Z,11.40
2023-05-31T04:48:31.526Z,11.00
2023-05-31T04:51:00.258Z,11.50
2023-05-31T04:53:27.218Z,11.50
2023-05-31T04:55:53.993Z,11.60
2023-05-31T04:58:20.765Z,11.60
2023-05-31T05:00:47.745Z,11.70
2023-05-31T05:03:14.962Z,11.90
2023-05-31T05:05:41.832Z,11.90
2023-05-31T05:08:08.611Z,12.00
2023-05-31T05:10:35.336Z,12.00
2023-05-31T05:13:02.025Z,12.10
2023-05-31T05:15:28.653Z,12.20
2023-05-31T05:17:55.313Z,12.30
2023-05-31T05:20:22.092Z,12.30
2023-05-31T05:22:55.258Z,12.50
2023-05-31T05:25:23.407Z,12.60
2023-05-31T05:27:50.183Z,12.70
2023-05-31T05:30:17.802Z,12.80
2023-05-31T05:32:44.624Z,13.00
2023-05-31T05:35:11.364Z,13.10
2023-05-31T05:37:38.603Z,13.20
2023-05-31T05:40:07.412Z,13.40
2023-05-31T05:42:37.536Z,13.50
2023-05-31T05:45:06.412Z,13.60
2023-05-31T05:47:33.068Z,13.70
2023-05-31T05:49:59.706Z,13.90
2023-05-31T05:52:26.418Z,14.10
2023-05-31T05:54:53.069Z,14.30
2023-05-31T05:57:20.243Z,14.40
2023-05-31T05:59:47.232Z,14.70
2023-05-31T06:02:13.967Z,14.90
2023-05-31T06:04:40.923Z,15.00
2023-05-31T06:07:07.657Z,15.10
2023-05-31T06:09:34.362Z,15.10
2023-05-31T06:12:01.529Z,15.20
2023-05-31T06:14:28.173Z,15.20
2023-05-31T06:16:54.829Z,15.30
2023-05-31T06:19:21.512Z,15.40
2023-05-31T06:21:49.759Z,15.50
2023-05-31T06:24:16.399Z,15.50
2023-05-31T06:26:43.077Z,15.50
2023-05-31T06:29:09.952Z,15.60
2023-05-31T06:31:37.242Z,15.70
2023-05-31T06:34:04.004Z,15.80
2023-05-31T06:36:30.990Z,15.90
2023-05-31T06:38:57.628Z,15.90
2023-05-31T06:41:24.881Z,16.00
2023-05-31T06:43:51.513Z,16.00
2023-05-31T06:46:18.122Z,16.10
2023-05-31T06:48:44.793Z,16.20
2023-05-31T06:51:11.917Z,16.20
2023-05-31T06:53:38.700Z,16.40
2023-05-31T06:56:06.861Z,16.60
2023-05-31T06:58:33.516Z,16.70
2023-05-31T07:01:00.439Z,16.70
2023-05-31T07:03:27.497Z,16.80
2023-05-31T07:05:54.150Z,16.90
2023-05-31T07:08:20.987Z,17.10
2023-05-31T07:10:47.656Z,17.20
2023-05-31T07:13:14.285Z,17.30
2023-05-31T07:15:40.990Z,17.40
2023-05-31T07:18:07.665Z,17.40
2023-05-31T07:20:34.369Z,17.50
2023-05-31T07:23:01.293Z,17.70
2023-05-31T07:25:27.938Z,17.90
2023-05-31T07:27:54.570Z,18.10
2023-05-31T07:30:21.762Z,18.10
2023-05-31T07:32:48.610Z,18.30
2023-05-31T07:35:15.684Z,18.40
2023-05-31T07:37:42.346Z,18.50
2023-05-31T07:40:09.440Z,18.60
2023-05-31T07:42:36.097Z,18.80
2023-05-31T07:45:02.767Z,18.90
2023-05-31T07:47:30.573Z,19.40
2023-05-31T07:49:57.189Z,19.80
2023-05-31T07:52:24.080Z,20.40
2023-05-31T07:54:50.935Z,21.10
2023-05-31T07:57:18.022Z,21.30
2023-05-31T07:59:44.632Z,21.50
2023-05-31T08:02:11.389Z,21.70
2023-05-31T08:04:38.162Z,22.00
2023-05-31T08:07:05.137Z,21.80
2023-05-31T08:09:31.736Z,21.90
2023-05-31T08:11:58.460Z,22.00
2023-05-31T08:14:25.102Z,21.90
2023-05-31T08:16:51.929Z,21.80
2023-05-31T08:19:18.619Z,21.70
2023-05-31T08:21:47.574Z,21.40
2023-05-31T08:24:14.277Z,21.30
2023-05-31T08:26:40.947Z,21.30
2023-05-31T08:29:08.311Z,21.20
2023-05-31T08:31:36.180Z,21.10
2023-05-31T08:34:03.131Z,21.30
2023-05-31T08:36:29.777Z,21.10
2023-05-31T08:38:56.412Z,21.10
2023-05-31T08:41:24.253Z,21.10
2023-05-31T08:43:51.013Z,21.10
2023-05-31T08:46:19.281Z,21.10
2023-05-31T08:48:54.645Z,21.20
2023-05-31T08:51:24.316Z,21.20
2023-05-31T08:53:52.352Z,21.40
2023-05-31T08:56:20.175Z,21.50
2023-05-31T08:58:51.061Z,21.60
2023-05-31T09:01:19.760Z,21.60
2023-05-31T09:03:46.889Z,21.70
2023-05-31T09:06:13.647Z,21.70
2023-05-31T09:08:40.480Z,21.80
2023-05-31T09:11:08.709Z,21.90
2023-05-31T09:13:35.402Z,21.80
2023-05-31T09:16:02.580Z,22.00
2023-05-31T09:18:37.748Z,22.00
2023-05-31T09:21:10.864Z,22.20
2023-05-31T09:23:37.808Z,22.30
2023-05-31T09:26:07.652Z,22.30
2023-05-31T09:28:34.834Z,22.40
2023-05-31T09:31:04.270Z,22.40
2023-05-31T09:33:43.118Z,22.30
2023-05-31T09:36:11.166Z,22.30
2023-05-31T09:38:38.586Z,22.30
2023-05-31T09:41:21.894Z,22.00
2023-05-31T09:43:50.072Z,22.10
2023-05-31T09:46:21.368Z,22.20
2023-05-31T09:49:04.768Z,22.10
2023-05-31T09:51:35.833Z,22.20
2023-05-31T09:54:08.670Z,22.30
2023-05-31T09:56:40.017Z,22.40
2023-05-31T09:59:07.190Z,22.50
2023-05-31T10:01:34.687Z,22.50
2023-05-31T10:04:05.812Z,22.60
2023-05-31T10:06:37.518Z,22.70
2023-05-31T10:09:08.553Z,22.70
2023-05-31T10:11:37.643Z,22.00
2023-05-31T10:14:09.785Z,22.70
2023-05-31T10:16:49.589Z,23.00
2023-05-31T10:19:25.142Z,23.10
2023-05-31T10:21:53.717Z,23.20
2023-05-31T10:24:45.894Z,23.30
2023-05-31T10:27:35.150Z,23.40
2023-05-31T10:30:06.769Z,23.30
2023-05-31T10:32:36.938Z,23.40
2023-05-31T10:35:04.420Z,23.40
2023-05-31T10:37:32.341Z,23.30
2023-05-31T10:40:13.979Z,23.10
2023-05-31T10:43:00.652Z,23.30
2023-05-31T10:45:30.659Z,23.40
2023-05-31T10:48:11.720Z,23.60
2023-05-31T10:50:54.099Z,23.60
2023-05-31T10:53:21.113Z,23.70
2023-05-31T10:55:48.505Z,23.90
2023-05-31T10:58:53.419Z,23.90
2023-05-31T11:01:22.730Z,23.80
2023-05-31T11:03:53.821Z,24.00
2023-05-31T11:06:29.012Z,24.10
2023-05-31T11:09:09.478Z,23.80
2023-05-31T11:11:42.089Z,23.60
2023-05-31T11:14:11.325Z,23.70
2023-05-31T11:17:16.455Z,23.70
2023-05-31T11:19:44.605Z,23.80
2023-05-31T11:22:15.068Z,24.00
2023-05-31T11:24:49.059Z,24.10
2023-05-31T11:27:16.217Z,24.00
2023-05-31T11:29:45.830Z,24.00
2023-05-31T11:32:13.324Z,24.00
2023-05-31T11:34:57.661Z,24.10
2023-05-31T11:37:36.894Z,24.20
2023-05-31T11:40:09.765Z,24.30
2023-05-31T11:42:38.169Z,24.40
2023-05-31T11:45:09.214Z,24.40
2023-05-31T11:48:00.152Z,24.50
2023-05-31T11:50:27.141Z,24.60
2023-05-31T11:52:59.346Z,24.70
2023-05-31T11:55:33.917Z,24.70
2023-05-31T11:58:00.731Z,24.80
2023-05-31T12:00:28.306Z,24.70
2023-05-31T12:03:01.090Z,24.60
2023-05-31T12:05:27.937Z,24.50
2023-05-31T12:07:56.615Z,24.50
2023-05-31T12:10:31.606Z,24.60
2023-05-31T12:13:02.099Z,24.20
2023-05-31T12:15:33.505Z,24.10
2023-05-31T12:18:01.483Z,24.20
2023-05-31T12:20:29.079Z,24.20
2023-05-31T12:23:13.829Z,24.10
2023-05-31T12:25:51.101Z,24.10
2023-05-31T12:28:21.334Z,24.10
2023-05-31T12:30:49.822Z,24.10
2023-05-31T12:33:17.240Z,24.10
2023-05-31T12:35:46.271Z,24.10
2023-05-31T12:38:12.966Z,24.10
2023-05-31T12:40:42.821Z,24.10
2023-05-31T12:43:10.306Z,24.20
2023-05-31T12:45:41.959Z,24.20
2023-05-31T12:48:13.222Z,24.20
2023-05-31T12:50:47.124Z,24.30
2023-05-31T12:53:14.779Z,24.30
2023-05-31T12:55:42.293Z,24.30
2023-05-31T12:58:09.536Z,24.30
2023-05-31T13:00:37.078Z,24.30
2023-05-31T13:03:04.028Z,24.30
2023-05-31T13:05:30.847Z,24.30
2023-05-31T13:07:57.544Z,24.50
2023-05-31T13:10:24.216Z,24.70
2023-05-31T13:12:51.213Z,24.90
2023-05-31T13:15:18.144Z,25.00
2023-05-31T13:17:44.883Z,24.90
2023-05-31T13:20:13.297Z,25.10
2023-05-31T13:22:42.504Z,25.20
2023-05-31T13:25:10.576Z,25.30
2023-05-31T13:27:37.413Z,25.20
2023-05-31T13:30:04.584Z,25.10
2023-05-31T13:32:31.887Z,25.10
2023-05-31T13:35:00.908Z,24.90
2023-05-31T13:37:28.452Z,25.00
2023-05-31T13:39:56.503Z,24.90
2023-05-31T13:42:23.393Z,24.90
2023-05-31T13:44:50.080Z,24.80
2023-05-31T13:47:17.549Z,24.80
2023-05-31T13:49:44.273Z,24.70
2023-05-31T13:52:14.273Z,24.90
2023-05-31T13:54:41.133Z,24.90
2023-05-31T13:57:07.782Z,24.90
2023-05-31T13:59:34.678Z,24.90
2023-05-31T14:02:01.430Z,25.20
2023-05-31T14:04:28.125Z,25.10
2023-05-31T14:06:54.765Z,25.20
2023-05-31T14:09:26.330Z,25.10
2023-05-31T14:11:53.087Z,25.30
2023-05-31T14:14:19.771Z,25.40
2023-05-31T14:16:46.510Z,25.50
2023-05-31T14:19:13.140Z,25.70
2023-05-31T14:24:09.297Z,25.70
2023-05-31T14:26:35.921Z,25.60
2023-05-31T14:29:02.710Z,25.60
2023-05-31T14:31:29.692Z,25.60
2023-05-31T14:33:56.453Z,25.50
2023-05-31T14:36:23.280Z,25.40
2023-05-31T14:38:50.458Z,25.40
2023-05-31T14:41:17.156Z,25.30
2023-05-31T14:43:43.821Z,25.30
2023-05-31T14:46:11.926Z,25.10
2023-05-31T14:48:38.937Z,25.10
2023-05-31T14:51:05.840Z,25.00
2023-05-31T14:53:32.462Z,25.00
2023-05-31T14:56:12.896Z,25.10
2023-05-31T14:58:46.594Z,25.30
2023-05-31T15:01:13.893Z,25.10
2023-05-31T15:03:40.645Z,25.20
2023-05-31T15:06:07.631Z,25.20
2023-05-31T15:08:35.661Z,25.30
2023-05-31T15:11:02.615Z,25.40
2023-05-31T15:13:29.571Z,25.50
2023-05-31T15:15:56.479Z,25.50
2023-05-31T15:18:26.019Z,25.60
2023-05-31T15:20:54.942Z,25.70
2023-05-31T15:23:21.879Z,25.60
2023-05-31T15:25:48.975Z,25.50
2023-05-31T15:28:16.272Z,25.40
2023-05-31T15:30:43.032Z,25.30
2023-05-31T15:33:09.792Z,25.30
2023-05-31T15:35:36.791Z,25.40
2023-05-31T15:38:03.670Z,25.30
2023-05-31T15:40:30.363Z,25.30
2023-05-31T15:42:57.147Z,25.30
2023-05-31T15:45:23.868Z,25.20
2023-05-31T15:47:50.704Z,25.20
2023-05-31T15:50:47.580Z,25.20
2023-05-31T15:53:14.991Z,25.30
2023-05-31T15:55:45.821Z,25.30
2023-05-31T15:58:19.447Z,25.40
2023-05-31T16:00:49.397Z,25.30
2023-05-31T16:03:16.998Z,25.30
2023-05-31T16:06:00.427Z,25.30
2023-05-31T16:08:27.244Z,25.20
2023-05-31T16:10:54.643Z,25.10
2023-05-31T16:13:26.584Z,25.00
2023-05-31T16:15:58.961Z,24.90
2023-05-31T16:18:26.015Z,24.70
2023-05-31T16:20:52.815Z,24.60
2023-05-31T16:23:19.693Z,24.50
2023-05-31T16:25:54.567Z,24.30
2023-05-31T16:28:25.673Z,24.30
2023-05-31T16:30:52.471Z,23.70
2023-05-31T16:33:27.108Z,24.20
2023-05-31T16:35:53.867Z,24.20
2023-05-31T16:38:20.741Z,24.10
2023-05-31T16:40:47.524Z,24.10
2023-05-31T16:43:14.872Z,24.00
2023-05-31T16:45:41.528Z,24.00
2023-05-31T16:48:08.200Z,24.00
2023-05-31T16:50:34.904Z,24.00
2023-05-31T16:53:01.749Z,24.00
2023-05-31T16:55:31.615Z,23.90
2023-05-31T16:58:02.203Z,23.80
2023-05-31T17:00:28.872Z,23.80
2023-05-31T17:02:56.319Z,23.80
2023-05-31T17:05:23.021Z,23.80
2023-05-31T17:07:49.709Z,23.80
2023-05-31T17:10:16.436Z,23.80
2023-05-31T17:12:44.085Z,23.70
2023-05-31T17:15:11.217Z,23.60
2023-05-31T17:17:37.871Z,23.50
2023-05-31T17:20:05.874Z,23.60
2023-05-31T17:22:32.640Z,23.50
2023-05-31T17:24:59.271Z,23.50
2023-05-31T17:27:26.023Z,23.50
2023-05-31T17:29:53.508Z,23.50
2023-05-31T17:32:20.163Z,23.60
2023-05-31T17:34:46.852Z,23.50
2023-05-31T17:37:13.469Z,23.50
2023-05-31T17:39:40.161Z,23.40
2023-05-31T17:42:07.338Z,23.30
2023-05-31T17:44:33.919Z,23.30
2023-05-31T17:47:00.608Z,23.30
2023-05-31T17:49:27.291Z,23.20
2023-05-31T17:51:54.091Z,23.00
2023-05-31T17:54:24.194Z,22.90
2023-05-31T17:56:53.630Z,22.70
2023-05-31T17:59:22.302Z,22.50
2023-05-31T18:01:49.308Z,22.40
2023-05-31T18:04:16.534Z,22.20
2023-05-31T18:06:43.293Z,22.10
2023-05-31T18:09:12.756Z,22.10
2023-05-31T18:11:42.594Z,22.00
2023-05-31T18:14:09.224Z,21.90
2023-05-31T18:16:36.520Z,21.90
2023-05-31T18:19:03.530Z,21.70
2023-05-31T18:21:30.179Z,21.70
2023-05-31T18:23:57.566Z,21.70
2023-05-31T18:26:24.403Z,21.80
2023-05-31T18:28:51.031Z,21.90
2023-05-31T18:31:17.845Z,22.60
2023-05-31T18:33:44.517Z,23.10
2023-05-31T18:36:14.717Z,21.70
2023-05-31T18:38:46.059Z,21.60
2023-05-31T18:41:13.291Z,21.50
2023-05-31T18:43:39.962Z,21.40
2023-05-31T18:46:06.810Z,21.40
2023-05-31T18:48:35.008Z,21.40
2023-05-31T18:51:01.959Z,21.20
2023-05-31T18:53:28.945Z,21.20
2023-05-31T18:55:55.566Z,21.00
2023-05-31T18:58:22.646Z,21.00
2023-05-31T19:00:50.203Z,20.90
2023-05-31T19:03:17.300Z,20.80
2023-05-31T19:05:44.001Z,20.70
2023-05-31T19:08:10.761Z,20.60
2023-05-31T19:10:37.802Z,20.50
2023-05-31T19:13:04.555Z,20.50
2023-05-31T19:15:31.633Z,20.40
2023-05-31T19:18:09.981Z,20.50
2023-05-31T19:20:50.273Z,20.40
2023-05-31T19:23:17.863Z,20.30
2023-05-31T19:25:45.601Z,20.30
2023-05-31T19:28:13.461Z,20.30
2023-05-31T19:30:49.076Z,20.20
2023-05-31T19:33:17.320Z,20.10
2023-05-31T19:35:44.741Z,20.10
2023-05-31T19:38:12.454Z,20.00
2023-05-31T19:40:41.479Z,19.90
2023-05-31T19:43:11.590Z,20.40
2023-05-31T19:45:38.311Z,19.70
2023-05-31T19:48:10.802Z,19.60
2023-05-31T19:50:37.646Z,19.50
2023-05-31T19:53:07.452Z,19.40
2023-05-31T19:55:34.690Z,19.40
2023-05-31T19:58:04.427Z,19.20
2023-05-31T20:00:31.076Z,19.20
2023-05-31T20:02:57.835Z,19.20
2023-05-31T20:05:24.641Z,19.10
2023-05-31T20:07:54.634Z,19.00
2023-05-31T20:10:21.829Z,18.90
2023-05-31T20:12:48.609Z,18.90
2023-05-31T20:15:16.580Z,18.80
2023-05-31T20:17:43.302Z,18.80
2023-05-31T20:20:11.043Z,18.80
2023-05-31T20:22:37.661Z,18.70
2023-05-31T20:25:06.022Z,18.60
2023-05-31T20:27:35.930Z,18.60
2023-05-31T20:30:03.044Z,18.60
2023-05-31T20:32:29.769Z,18.60
2023-05-31T20:34:59.615Z,18.60
2023-05-31T20:37:26.845Z,18.50
2023-05-31T20:39:53.801Z,18.40
2023-05-31T20:42:20.549Z,18.50
2023-05-31T20:44:50.549Z,18.50
2023-05-31T20:47:17.702Z,18.40
2023-05-31T20:49:45.672Z,18.60
2023-05-31T20:52:12.542Z,18.60
2023-05-31T20:54:41.463Z,18.50
2023-05-31T20:57:11.610Z,18.40
2023-05-31T20:59:38.446Z,18.60
2023-05-31T21:02:05.607Z,18.60
2023-05-31T21:04:32.596Z,18.60
2023-05-31T21:06:59.744Z,18.50
2023-05-31T21:09:28.362Z,18.50
2023-05-31T21:11:55.330Z,18.50
2023-05-31T21:14:22.260Z,18.50
2023-05-31T21:16:55.349Z,18.50
2023-05-31T21:19:22.513Z,18.40
2023-05-31T21:21:49.213Z,18.60
2023-05-31T21:24:16.170Z,18.70
2023-05-31T21:26:42.810Z,18.70
2023-05-31T21:29:09.422Z,18.70
2023-05-31T21:31:39.382Z,18.70
2023-05-31T21:34:06.699Z,18.70
2023-05-31T21:36:33.672Z,18.70
2023-05-31T21:39:00.376Z,18.70
2023-05-31T21:41:27.815Z,18.60
2023-05-31T21:43:55.164Z,18.50
2023-05-31T21:46:21.958Z,18.30
2023-05-31T21:48:48.613Z,18.40
2023-05-31T21:51:15.557Z,18.30
2023-05-31T21:53:42.270Z,18.10
2023-05-31T21:56:09.046Z,18.30
2023-05-31T21:58:37.825Z,18.30
2023-05-31T22:01:04.687Z,18.30
2023-05-31T22:03:32.046Z,18.40
2023-05-31T22:05:58.688Z,18.30
2023-05-31T22:08:25.393Z,18.40
2023-05-31T22:10:52.214Z,18.30
2023-05-31T22:13:19.001Z,18.20
2023-05-31T22:15:51.360Z,18.10
2023-05-31T22:18:21.396Z,18.00
2023-05-31T22:20:56.155Z,17.90
2023-05-31T22:23:24.143Z,17.80
2023-05-31T22:25:52.431Z,18.00
2023-05-31T22:28:19.709Z,17.80
2023-05-31T22:30:46.489Z,17.80
2023-05-31T22:33:13.492Z,17.70
2023-05-31T22:35:40.165Z,17.80
2023-05-31T22:38:06.781Z,17.80
2023-05-31T22:40:33.407Z,17.80
2023-05-31T22:43:00.148Z,17.80
2023-05-31T22:45:26.809Z,17.70
2023-05-31T22:47:53.532Z,17.70
2023-05-31T22:50:20.283Z,17.50
2023-05-31T22:52:48.754Z,17.50
2023-05-31T22:55:16.137Z,17.40
2023-05-31T22:57:43.010Z,17.30
2023-05-31T23:00:13.218Z,17.20
2023-05-31T23:02:41.122Z,17.20
2023-05-31T23:05:10.020Z,17.10
2023-05-31T23:07:37.570Z,17.10
2023-05-31T23:10:07.367Z,17.30
2023-05-31T23:12:34.523Z,17.30
2023-05-31T23:15:05.709Z,17.30
2023-05-31T23:17:39.210Z,17.30
2023-05-31T23:20:15.656Z,17.20
2023-05-31T23:22:43.863Z,17.20
2023-05-31T23:25:12.108Z,17.30
2023-05-31T23:27:39.710Z,17.20
2023-05-31T23:30:11.413Z,17.20
2023-05-31T23:32:38.563Z,17.20
2023-05-31T23:35:06.166Z,17.20
2023-05-31T23:37:34.454Z,17.10
2023-05-31T23:40:02.257Z,17.10
2023-05-31T23:42:28.895Z,17.00
2023-05-31T23:44:55.643Z,17.00
2023-05-31T23:47:22.257Z,17.00
2023-05-31T23:49:48.980Z,17.00
2023-05-31T23:52:15.684Z,17.00
2023-05-31T23:54:42.534Z,17.00
2023-05-31T23:57:09.581Z,16.90
2023-05-31T23:59:36.157Z,16.90
